Time;durP1;ratioP1;P1;durP2;ratioP2;P2;SDS_P1;SDS_P2;PMS_P1;PMS_P2;Temp;Humidity;BMP_temperature;BMP_pressure;BME280_temperature;BME280_humidity;BME280_pressure;Samples;Min_cycle;Max_cycle;Signal;HPM_P1;HPM_P2
2023/04/28 00:01:12;;;;;;;1.17;1.10;;;5.80;99.90;;;;;;4953935;28;20047;-81
2023/04/28 00:03:41;;;;;;;1.10;1.00;;;5.80;99.90;;;;;;4951464;28;20546;-82
2023/04/28 00:06:10;;;;;;;1.00;1.00;;;5.80;99.90;;;;;;4962745;28;20054;-79
2023/04/28 00:08:37;;;;;;;1.35;1.23;;;5.70;99.90;;;;;;4951015;28;20078;-80
2023/04/28 00:11:09;;;;;;;2.17;0.85;;;5.70;99.90;;;;;;4950170;28;20145;-80
2023/04/28 00:13:37;;;;;;;1.23;1.00;;;5.70;99.90;;;;;;4969191;28;20054;-81
2023/04/28 00:16:05;;;;;;;1.00;1.00;;;5.80;99.90;;;;;;4965720;28;20145;-80
2023/04/28 00:18:34;;;;;;;1.40;1.15;;;5.80;99.90;;;;;;4954955;29;20546;-80
2023/04/28 00:21:03;;;;;;;6.85;1.60;;;5.80;99.90;;;;;;4971512;28;20537;-80
2023/04/28 00:23:30;;;;;;;1.38;1.25;;;5.80;99.90;;;;;;4939848;28;20051;-80
2023/04/28 00:25:57;;;;;;;1.17;1.10;;;5.80;99.90;;;;;;4971571;28;20121;-80
2023/04/28 00:28:25;;;;;;;1.20;1.10;;;5.80;99.90;;;;;;4970343;28;20055;-80
2023/04/28 00:30:52;;;;;;;2.15;0.90;;;5.80;99.90;;;;;;4934058;29;20055;-79
2023/04/28 00:33:20;;;;;;;2.13;1.00;;;5.80;99.90;;;;;;4969712;28;20057;-80
2023/04/28 00:35:47;;;;;;;1.30;1.20;;;5.80;99.90;;;;;;4948979;28;20117;-79
2023/04/28 00:38:16;;;;;;;2.88;1.20;;;5.80;99.90;;;;;;4954789;28;20059;-81
2023/04/28 00:40:44;;;;;;;1.70;1.60;;;5.70;99.90;;;;;;4957188;28;20045;-79
2023/04/28 00:43:11;;;;;;;1.35;1.25;;;5.70;99.90;;;;;;4939352;28;20049;-81
2023/04/28 00:45:39;;;;;;;1.48;1.38;;;5.70;99.90;;;;;;4954685;28;20050;-81
2023/04/28 00:48:08;;;;;;;1.40;1.30;;;5.70;99.90;;;;;;4971914;28;20085;-81
2023/04/28 00:50:37;;;;;;;2.05;1.38;;;5.70;99.90;;;;;;4939721;28;20157;-81
2023/04/28 00:53:05;;;;;;;1.15;1.10;;;5.70;99.90;;;;;;4954928;28;20050;-81
2023/04/28 00:55:35;;;;;;;1.50;1.40;;;5.70;99.90;;;;;;4971474;28;20039;-81
2023/04/28 00:58:04;;;;;;;1.83;1.48;;;5.70;99.90;;;;;;4971908;28;20051;-82
2023/04/28 01:00:31;;;;;;;1.30;1.30;;;5.70;99.90;;;;;;4969767;28;20047;-82
2023/04/28 01:02:59;;;;;;;1.60;1.50;;;5.70;99.90;;;;;;4969049;28;20074;-82
2023/04/28 01:05:30;;;;;;;1.02;1.00;;;5.70;99.90;;;;;;4953676;28;20422;-81
2023/04/28 01:07:58;;;;;;;1.55;1.45;;;5.70;99.90;;;;;;4956159;28;20093;-80
2023/04/28 01:10:25;;;;;;;2.03;1.20;;;5.70;99.90;;;;;;4970805;28;20635;-81
2023/04/28 01:12:58;;;;;;;1.67;1.40;;;5.70;99.90;;;;;;4954949;28;20059;-81
2023/04/28 01:15:26;;;;;;;1.27;1.17;;;5.70;99.90;;;;;;4953475;28;20256;-82
2023/04/28 01:17:56;;;;;;;1.20;1.15;;;5.70;99.90;;;;;;4956041;28;20515;-82
2023/04/28 01:20:23;;;;;;;1.20;1.10;;;5.70;99.90;;;;;;4934920;28;20062;-82
2023/04/28 01:22:51;;;;;;;1.58;1.20;;;5.70;99.90;;;;;;4939110;28;20047;-82
2023/04/28 01:25:21;;;;;;;1.23;1.15;;;5.70;99.90;;;;;;4953835;28;20055;-81
2023/04/28 01:27:49;;;;;;;1.08;0.98;;;5.70;99.90;;;;;;4953967;28;20074;-81
2023/04/28 01:30:16;;;;;;;1.17;1.15;;;5.70;99.90;;;;;;4955578;28;20134;-81
2023/04/28 01:32:44;;;;;;;2.08;1.30;;;5.70;99.90;;;;;;4980113;28;20054;-81
2023/04/28 01:35:11;;;;;;;2.25;1.20;;;5.70;99.90;;;;;;4960832;28;20125;-81
2023/04/28 01:37:39;;;;;;;1.60;1.48;;;5.80;99.90;;;;;;4952651;28;20051;-81
2023/04/28 01:40:08;;;;;;;1.50;1.40;;;5.80;99.90;;;;;;4972459;28;20051;-82
2023/04/28 01:42:37;;;;;;;1.55;1.38;;;5.80;99.90;;;;;;4954181;28;20258;-81
2023/04/28 01:45:06;;;;;;;1.58;1.48;;;5.80;99.90;;;;;;4954712;28;20051;-83
2023/04/28 01:47:33;;;;;;;1.77;1.67;;;5.90;99.90;;;;;;4942896;28;20047;-83
2023/04/28 01:50:01;;;;;;;2.67;1.88;;;5.90;99.90;;;;;;4941392;28;20097;-83
2023/04/28 01:52:32;;;;;;;1.80;1.48;;;5.90;99.90;;;;;;4971643;28;20061;-81
2023/04/28 01:54:59;;;;;;;2.00;1.65;;;6.00;99.90;;;;;;4952926;28;20094;-81
2023/04/28 01:57:27;;;;;;;1.77;1.50;;;6.00;99.90;;;;;;4969373;28;20086;-81
2023/04/28 01:59:59;;;;;;;1.80;1.60;;;6.00;99.90;;;;;;4953053;28;20062;-83
2023/04/28 02:02:33;;;;;;;1.83;1.73;;;6.00;99.90;;;;;;4954448;28;20526;-82
2023/04/28 02:05:01;;;;;;;3.30;2.05;;;6.00;99.90;;;;;;4933854;29;20062;-81
2023/04/28 02:07:32;;;;;;;4.13;1.98;;;6.00;99.90;;;;;;4966190;28;20054;-81
2023/04/28 02:09:59;;;;;;;3.15;1.90;;;6.00;99.90;;;;;;4937742;28;20392;-83
2023/04/28 02:12:26;;;;;;;2.35;1.92;;;6.00;99.90;;;;;;4953718;28;20717;-82
2023/04/28 02:14:54;;;;;;;2.10;2.00;;;6.00;99.90;;;;;;4940107;28;20146;-82
2023/04/28 02:17:23;;;;;;;2.60;1.90;;;6.10;99.90;;;;;;4954242;28;20058;-81
2023/04/28 02:19:56;;;;;;;2.40;2.20;;;6.10;99.90;;;;;;4962280;28;20306;-83
2023/04/28 02:22:24;;;;;;;2.70;2.50;;;6.10;99.90;;;;;;4952162;28;20055;-82
2023/04/28 02:24:51;;;;;;;2.45;2.10;;;6.20;99.90;;;;;;4970049;28;20051;-83
2023/04/28 02:27:19;;;;;;;3.15;2.67;;;6.20;99.90;;;;;;4952840;28;20051;-82
2023/04/28 02:29:49;;;;;;;4.65;2.47;;;6.20;99.90;;;;;;4953717;28;20050;-82
2023/04/28 02:32:17;;;;;;;4.30;2.80;;;6.30;99.90;;;;;;4930302;29;20538;-78
2023/04/28 02:34:46;;;;;;;3.65;2.65;;;6.30;99.90;;;;;;4933828;28;20050;-78
2023/04/28 02:37:13;;;;;;;2.85;2.55;;;6.30;99.90;;;;;;4935366;28;20049;-78
2023/04/28 02:39:40;;;;;;;3.47;3.10;;;6.20;99.90;;;;;;4970409;28;20078;-78
2023/04/28 02:42:08;;;;;;;5.00;3.33;;;6.30;99.90;;;;;;4930819;28;20597;-78
2023/04/28 02:44:36;;;;;;;3.45;3.15;;;6.30;99.90;;;;;;4968304;28;20542;-78
2023/04/28 02:47:03;;;;;;;4.88;3.72;;;6.30;99.90;;;;;;4964251;28;20086;-78
2023/04/28 02:49:31;;;;;;;3.38;3.17;;;6.30;99.90;;;;;;4951384;28;20426;-78
2023/04/28 02:52:01;;;;;;;4.25;3.80;;;6.40;99.90;;;;;;4935680;28;20047;-78
2023/04/28 02:54:29;;;;;;;4.68;3.88;;;6.40;99.90;;;;;;4953207;28;20074;-78
2023/04/28 02:56:58;;;;;;;3.92;3.63;;;6.40;99.90;;;;;;4936651;28;20050;-78
2023/04/28 02:59:26;;;;;;;5.85;4.13;;;6.40;99.90;;;;;;4935359;28;20043;-77
2023/04/28 03:01:54;;;;;;;4.22;3.83;;;6.40;99.90;;;;;;4971660;28;20555;-77
2023/04/28 03:04:22;;;;;;;5.90;3.92;;;6.50;99.90;;;;;;4971411;28;20058;-77
2023/04/28 03:06:50;;;;;;;4.47;3.63;;;6.50;99.90;;;;;;4938471;28;20046;-79
2023/04/28 03:09:19;;;;;;;5.43;4.03;;;6.50;99.90;;;;;;4955797;28;20082;-78
2023/04/28 03:11:47;;;;;;;4.28;3.88;;;6.50;99.90;;;;;;4953872;28;20055;-79
2023/04/28 03:14:14;;;;;;;4.90;3.75;;;6.50;99.90;;;;;;4940015;28;20324;-78
2023/04/28 03:16:42;;;;;;;4.28;3.88;;;6.50;99.90;;;;;;4938071;28;20515;-78
2023/04/28 03:19:09;;;;;;;6.55;4.15;;;6.50;99.90;;;;;;4961296;28;20113;-77
2023/04/28 03:21:37;;;;;;;4.03;3.53;;;6.60;99.90;;;;;;4937852;28;20089;-78
2023/04/28 03:24:05;;;;;;;3.83;3.53;;;6.60;99.90;;;;;;4954102;28;20074;-78
2023/04/28 03:26:36;;;;;;;4.53;2.80;;;6.60;99.90;;;;;;4934474;28;20668;-78
2023/04/28 03:29:04;;;;;;;4.45;4.03;;;6.60;99.90;;;;;;4969614;28;20050;-78
2023/04/28 03:31:31;;;;;;;4.50;4.10;;;6.70;99.90;;;;;;4952192;28;20571;-78
2023/04/28 03:33:59;;;;;;;10.38;6.32;;;6.60;99.90;;;;;;4970442;28;20058;-78
2023/04/28 03:36:27;;;;;;;4.88;3.95;;;6.70;99.90;;;;;;4934617;28;20051;-77
2023/04/28 03:38:57;;;;;;;4.32;3.60;;;6.70;99.90;;;;;;4954317;28;20070;-77
2023/04/28 03:41:24;;;;;;;4.00;3.40;;;6.70;99.90;;;;;;4953771;28;20468;-78
2023/04/28 03:44:19;;;;;;;6.20;4.22;;;6.80;99.90;;;;;;4961479;28;20047;-78
2023/04/28 03:46:49;;;;;;;4.90;4.50;;;6.90;99.90;;;;;;4968121;28;20061;-78
2023/04/28 03:49:16;;;;;;;7.57;4.97;;;6.90;99.90;;;;;;4938172;28;20337;-77
2023/04/28 03:51:44;;;;;;;4.75;3.85;;;7.00;99.90;;;;;;4938149;28;20490;-78
2023/04/28 03:54:12;;;;;;;4.47;3.72;;;7.00;99.90;;;;;;4931407;29;20043;-83
2023/04/28 03:56:40;;;;;;;6.10;3.70;;;7.00;99.90;;;;;;4964821;28;20051;-83
2023/04/28 03:59:10;;;;;;;9.32;4.05;;;7.00;99.90;;;;;;4951915;28;20055;-84
2023/04/28 04:01:39;;;;;;;6.07;3.33;;;7.00;99.90;;;;;;4954073;28;20051;-82
2023/04/28 04:04:06;;;;;;;4.25;3.50;;;7.00;99.90;;;;;;4954474;28;20491;-80
2023/04/28 04:06:34;;;;;;;5.55;3.42;;;7.00;99.90;;;;;;4937140;28;20054;-81
2023/04/28 04:09:02;;;;;;;4.20;3.40;;;7.00;99.90;;;;;;4937086;28;20503;-81
2023/04/28 04:11:30;;;;;;;3.40;3.15;;;7.00;99.90;;;;;;4934139;28;20051;-81
2023/04/28 04:13:57;;;;;;;3.75;3.40;;;7.00;99.90;;;;;;4954250;28;20479;-81
2023/04/28 04:16:26;;;;;;;4.63;3.10;;;7.00;99.90;;;;;;4952811;28;20458;-83
2023/04/28 04:18:57;;;;;;;4.03;3.55;;;7.00;99.90;;;;;;4951101;29;20043;-82
2023/04/28 04:21:32;;;;;;;3.75;2.85;;;7.00;99.90;;;;;;4946942;28;20533;-79
2023/04/28 04:24:00;;;;;;;2.97;2.70;;;7.00;99.90;;;;;;4967056;28;20388;-77
2023/04/28 04:26:28;;;;;;;5.18;2.47;;;7.00;99.90;;;;;;4960543;28;20039;-77
2023/04/28 04:28:57;;;;;;;4.40;2.85;;;7.00;99.90;;;;;;4952972;28;20065;-77
2023/04/28 04:31:24;;;;;;;11.25;3.72;;;7.10;99.90;;;;;;4952998;28;20423;-78
2023/04/28 04:33:52;;;;;;;4.72;2.90;;;7.10;99.90;;;;;;4950551;28;20206;-77
2023/04/28 04:36:22;;;;;;;5.57;3.08;;;7.20;99.90;;;;;;4953943;28;20043;-77
2023/04/28 04:38:51;;;;;;;2.75;2.45;;;7.20;99.90;;;;;;4935721;28;20047;-80
2023/04/28 04:41:19;;;;;;;9.52;3.17;;;7.20;99.90;;;;;;4960918;28;20058;-78
2023/04/28 04:43:48;;;;;;;3.08;2.47;;;7.20;99.90;;;;;;4966339;28;20515;-79
2023/04/28 04:46:16;;;;;;;3.05;2.80;;;7.20;99.90;;;;;;4947272;28;20053;-78
2023/04/28 04:48:44;;;;;;;6.60;3.15;;;7.30;99.90;;;;;;4969446;28;20049;-85
2023/04/28 04:51:16;;;;;;;3.25;2.95;;;7.30;99.90;;;;;;4938137;28;20389;-83
2023/04/28 04:53:49;;;;;;;6.40;2.58;;;7.30;99.90;;;;;;4950618;29;20067;-80
2023/04/28 04:56:17;;;;;;;2.97;2.78;;;7.30;99.90;;;;;;4940995;28;20514;-81
2023/04/28 04:58:47;;;;;;;2.97;2.30;;;7.30;99.90;;;;;;4970029;28;20043;-78
2023/04/28 05:01:34;;;;;;;4.30;2.50;;;7.30;99.90;;;;;;4952105;28;20519;-77
2023/04/28 05:04:02;;;;;;;3.22;2.55;;;7.30;99.90;;;;;;4958745;28;20047;-82
2023/04/28 05:06:31;;;;;;;5.63;2.50;;;7.40;99.90;;;;;;4958381;28;20418;-82
2023/04/28 05:09:00;;;;;;;3.15;2.70;;;7.40;99.90;;;;;;4957872;28;20058;-82
2023/04/28 05:11:28;;;;;;;2.83;2.47;;;7.40;99.90;;;;;;4956238;28;20070;-81
2023/04/28 05:13:55;;;;;;;3.28;2.97;;;7.40;99.90;;;;;;4954906;28;20055;-82
2023/04/28 05:16:24;;;;;;;3.90;2.58;;;7.40;99.90;;;;;;4954664;28;20574;-83
2023/04/28 05:18:54;;;;;;;3.55;2.28;;;7.50;99.90;;;;;;4955898;28;20042;-83
2023/04/28 05:21:22;;;;;;;7.07;2.85;;;7.50;99.90;;;;;;4969020;28;20073;-82
2023/04/28 05:23:51;;;;;;;6.72;2.97;;;7.50;99.90;;;;;;4957983;28;20053;-81
2023/04/28 05:26:21;;;;;;;4.80;2.78;;;7.50;99.90;;;;;;4980978;28;20069;-83
2023/04/28 05:28:49;;;;;;;4.82;2.83;;;7.50;99.90;;;;;;4959314;28;20050;-81
2023/04/28 05:31:17;;;;;;;7.97;2.80;;;7.50;99.90;;;;;;4955219;28;20519;-82
2023/04/28 05:33:45;;;;;;;2.72;2.47;;;7.50;99.90;;;;;;4956791;28;20074;-81
2023/04/28 05:36:15;;;;;;;4.65;3.00;;;7.50;99.90;;;;;;4949397;28;20042;-80
2023/04/28 05:38:43;;;;;;;4.90;2.60;;;7.50;99.90;;;;;;4939217;28;20090;-81
2023/04/28 05:41:11;;;;;;;6.47;3.00;;;7.60;99.90;;;;;;4952058;28;20415;-82
2023/04/28 05:43:43;;;;;;;7.00;3.85;;;7.60;99.90;;;;;;4940478;28;20556;-81
2023/04/28 05:46:12;;;;;;;9.18;2.40;;;7.70;99.90;;;;;;4953016;28;20148;-82
2023/04/28 05:48:39;;;;;;;3.92;2.60;;;7.70;99.90;;;;;;4940232;28;20507;-82
2023/04/28 05:51:07;;;;;;;2.92;2.70;;;7.80;99.90;;;;;;4940162;28;20066;-81
2023/04/28 05:53:47;;;;;;;4.60;2.58;;;7.80;99.90;;;;;;4940632;28;20062;-81
2023/04/28 05:56:38;;;;;;;;;;;7.90;99.90;;;;;;4954079;28;20047;-82
2023/04/28 05:59:07;;;;;;;4.53;2.80;;;7.90;99.90;;;;;;4976087;28;20029;-80
2023/04/28 06:01:35;;;;;;;5.57;2.58;;;7.90;99.90;;;;;;4973760;28;20249;-79
2023/04/28 06:04:02;;;;;;;5.32;3.05;;;7.90;99.90;;;;;;4967033;28;20062;-81
2023/04/28 06:06:32;;;;;;;5.25;3.13;;;8.10;99.90;;;;;;4970374;28;20064;-82
2023/04/28 06:09:01;;;;;;;3.13;2.55;;;8.10;99.90;;;;;;4953819;28;20051;-79
2023/04/28 06:11:29;;;;;;;4.13;2.60;;;8.20;99.90;;;;;;4954409;28;20047;-78
2023/04/28 06:13:59;;;;;;;2.97;2.67;;;8.30;99.90;;;;;;4950481;28;20059;-79
2023/04/28 06:16:28;;;;;;;4.80;3.58;;;8.30;99.90;;;;;;4952867;28;20051;-78
2023/04/28 06:18:56;;;;;;;6.88;3.00;;;8.30;99.90;;;;;;4954969;28;20075;-78
2023/04/28 06:21:24;;;;;;;5.75;3.00;;;8.40;99.90;;;;;;4966518;28;20050;-81
2023/04/28 06:23:54;;;;;;;6.35;3.70;;;8.40;99.90;;;;;;4961347;28;20527;-78
2023/04/28 06:26:22;;;;;;;8.10;3.25;;;8.40;99.90;;;;;;4948844;28;20051;-78
2023/04/28 06:28:50;;;;;;;7.88;3.10;;;8.50;99.90;;;;;;4984670;28;20062;-78
2023/04/28 06:43:22;;;;;;;4.22;3.03;;;8.50;99.90;;;;;;5144410;27;20405;-83
2023/04/28 06:46:16;;;;;;;5.93;3.33;;;9.20;99.90;;;;;;5125611;27;20055;-84
2023/04/28 06:48:43;;;;;;;4.60;2.92;;;9.10;99.90;;;;;;5123408;27;20053;-90
2023/04/28 06:51:10;;;;;;;5.47;3.70;;;9.10;99.90;;;;;;5126025;27;20091;-83
2023/04/28 06:53:38;;;;;;;8.20;3.28;;;9.00;99.90;;;;;;5126722;27;20511;-83
2023/04/28 06:56:08;;;;;;;7.63;3.42;;;8.90;99.90;;;;;;5108847;28;20047;-83
2023/04/28 06:58:37;;;;;;;8.32;2.95;;;8.90;99.90;;;;;;5127869;27;20055;-84
2023/04/28 07:01:04;;;;;;;8.02;3.15;;;8.90;99.90;;;;;;5128359;27;20065;-83
2023/04/28 07:03:32;;;;;;;5.40;3.08;;;8.90;99.90;;;;;;5126981;27;20117;-84
2023/04/28 07:05:59;;;;;;;5.30;3.50;;;9.00;99.90;;;;;;5109299;28;20063;-84
2023/04/28 07:08:28;;;;;;;9.85;3.50;;;9.10;99.90;;;;;;5128337;27;20058;-84
2023/04/28 07:10:55;;;;;;;8.50;3.92;;;9.20;99.90;;;;;;5126521;28;20051;-82
2023/04/28 07:13:23;;;;;;;4.32;3.40;;;9.30;99.90;;;;;;5125793;27;20419;-83
2023/04/28 07:15:52;;;;;;;10.90;3.30;;;9.30;99.90;;;;;;5123819;28;20499;-84
2023/04/28 07:18:19;;;;;;;7.07;3.75;;;9.30;99.90;;;;;;5124048;27;20047;-84
2023/04/28 07:20:47;;;;;;;12.80;3.58;;;9.40;99.90;;;;;;5124050;28;20089;-82
2023/04/28 07:23:14;;;;;;;12.90;2.80;;;9.40;99.90;;;;;;5124091;28;20281;-82
2023/04/28 07:25:41;;;;;;;9.40;3.55;;;9.40;99.90;;;;;;5124373;27;20088;-81
2023/04/28 07:28:09;;;;;;;13.38;3.60;;;9.40;99.90;;;;;;5127231;27;20100;-82
2023/04/28 07:30:36;;;;;;;5.65;2.83;;;9.40;99.90;;;;;;5127729;27;20457;-82
2023/04/28 07:33:05;;;;;;;6.95;3.22;;;9.60;99.90;;;;;;5109007;28;20054;-82
2023/04/28 07:35:32;;;;;;;6.65;3.25;;;9.70;99.90;;;;;;5105126;28;20089;-81
2023/04/28 07:38:00;;;;;;;7.68;3.55;;;9.80;99.90;;;;;;5107051;28;20052;-82
2023/04/28 07:40:27;;;;;;;7.32;4.20;;;10.10;99.90;;;;;;5105714;28;20565;-83
2023/04/28 07:42:55;;;;;;;4.57;3.33;;;10.30;99.90;;;;;;5101154;28;20055;-82
2023/04/28 07:45:22;;;;;;;8.38;3.80;;;10.60;99.90;;;;;;5113115;28;20047;-82
2023/04/28 07:47:49;;;;;;;7.20;3.40;;;10.90;99.90;;;;;;5114104;28;20096;-82
2023/04/28 07:50:18;;;;;;;6.32;2.83;;;11.60;99.90;;;;;;5095341;28;20100;-82
2023/04/28 07:52:45;;;;;;;7.28;2.88;;;12.00;99.90;;;;;;5113347;28;20134;-83
2023/04/28 07:55:12;;;;;;;8.45;2.88;;;12.30;99.90;;;;;;5113623;28;20435;-82
2023/04/28 07:57:41;;;;;;;6.82;2.83;;;12.60;99.90;;;;;;5112406;28;20188;-82
2023/04/28 08:00:10;;;;;;;5.75;3.10;;;12.90;99.90;;;;;;5112526;28;20105;-84
2023/04/28 08:02:40;;;;;;;5.97;2.60;;;13.20;99.90;;;;;;5113503;28;20051;-83
2023/04/28 08:05:08;;;;;;;5.57;2.47;;;13.50;99.90;;;;;;5113634;28;20058;-89
2023/04/28 08:07:37;;;;;;;4.50;2.75;;;13.70;99.90;;;;;;5103096;28;20040;-90
2023/04/28 08:10:05;;;;;;;10.98;2.85;;;13.80;99.90;;;;;;5108737;28;20048;-88
2023/04/28 08:12:33;;;;;;;6.57;2.70;;;14.40;99.90;;;;;;5105829;28;20063;-83
2023/04/28 08:15:00;;;;;;;6.20;3.00;;;15.50;99.90;;;;;;5101453;28;20043;-82
2023/04/28 08:17:28;;;;;;;2.78;2.25;;;16.20;99.90;;;;;;5102375;28;20088;-82
2023/04/28 08:19:55;;;;;;;7.70;3.30;;;16.70;99.30;;;;;;5104474;28;20062;-82
2023/04/28 08:22:22;;;;;;;5.40;3.15;;;17.10;96.20;;;;;;5101368;28;20051;-83
2023/04/28 08:24:52;;;;;;;8.48;3.17;;;17.00;93.80;;;;;;5101983;28;20044;-82
2023/04/28 08:27:20;;;;;;;6.78;2.67;;;16.70;94.70;;;;;;5102998;28;20786;-81
2023/04/28 08:29:47;;;;;;;12.68;3.60;;;16.80;94.30;;;;;;5106640;27;20044;-87
2023/04/28 08:32:14;;;;;;;9.00;3.55;;;17.40;93.70;;;;;;5102553;28;20123;-85
2023/04/28 08:34:42;;;;;;;10.75;3.20;;;17.60;92.20;;;;;;5108527;27;20071;-88
2023/04/28 08:37:09;;;;;;;8.57;2.67;;;17.90;88.70;;;;;;5108087;27;20058;-88
2023/04/28 08:39:36;;;;;;;6.07;2.50;;;18.30;86.40;;;;;;5107422;27;20059;-86
2023/04/28 08:42:05;;;;;;;5.53;2.55;;;18.50;82.50;;;;;;5099571;28;20051;-88
2023/04/28 08:44:38;;;;;;;7.45;2.28;;;18.40;79.10;;;;;;5101896;28;20067;-88
2023/04/28 08:47:11;;;;;;;4.93;2.00;;;18.10;79.80;;;;;;5101038;28;20529;-87
2023/04/28 08:49:39;;;;;;;5.38;2.00;;;17.80;79.20;;;;;;5104244;28;20728;-87
2023/04/28 08:52:11;;;;;;;7.38;2.40;;;17.60;78.00;;;;;;5099569;27;20059;-86
2023/04/28 08:54:40;;;;;;;8.20;2.40;;;18.00;77.30;;;;;;5073534;28;20143;-86
2023/04/28 08:57:10;;;;;;;13.60;2.47;;;18.20;76.10;;;;;;5102070;28;20032;-87
2023/04/28 08:59:46;;;;;;;7.75;2.50;;;18.30;74.20;;;;;;5112758;28;20051;-84
2023/04/28 09:02:14;;;;;;;7.40;1.88;;;18.70;70.90;;;;;;5085297;28;20523;-84
2023/04/28 09:04:42;;;;;;;6.30;2.03;;;18.60;71.40;;;;;;5107675;28;20050;-89
2023/04/28 09:07:11;;;;;;;5.80;2.63;;;18.50;71.40;;;;;;5114779;28;21450;-86
2023/04/28 09:09:39;;;;;;;8.10;2.20;;;18.50;71.10;;;;;;5094669;28;20047;-86
2023/04/28 09:12:11;;;;;;;6.90;2.20;;;19.10;70.30;;;;;;5088200;28;20043;-88
2023/04/28 09:14:39;;;;;;;4.85;2.10;;;19.10;67.30;;;;;;5110960;28;20040;-89
2023/04/28 09:17:11;;;;;;;9.27;2.40;;;19.40;68.90;;;;;;5089950;28;20058;-90
2023/04/28 09:19:41;;;;;;;3.47;2.17;;;19.90;68.10;;;;;;5090749;28;20052;-89
2023/04/28 09:22:09;;;;;;;5.72;4.22;;;20.70;66.40;;;;;;5091765;28;20051;-88
2023/04/28 09:24:39;;;;;;;3.58;2.15;;;21.20;61.70;;;;;;5103664;28;20477;-89
2023/04/28 09:27:09;;;;;;;4.47;1.90;;;21.90;60.90;;;;;;5110182;28;20480;-89
2023/04/28 09:29:39;;;;;;;6.18;1.65;;;22.40;57.60;;;;;;5110334;28;20054;-87
2023/04/28 09:32:14;;;;;;;5.63;2.00;;;22.80;56.40;;;;;;5103813;28;20052;-87
2023/04/28 09:34:45;;;;;;;8.00;2.17;;;23.10;56.00;;;;;;5101658;28;20048;-87
2023/04/28 09:37:17;;;;;;;6.55;2.15;;;23.40;55.40;;;;;;5089461;28;20079;-87
2023/04/28 09:39:45;;;;;;;4.13;1.77;;;;;;;;;;5094346;28;20102;-91
2023/04/28 09:42:31;;;;;;;4.18;1.83;;;23.80;51.50;;;;;;5084605;28;20080;-90
2023/04/28 09:45:02;;;;;;;2.28;1.65;;;24.20;51.00;;;;;;5091736;28;20047;-92
2023/04/28 09:47:37;;;;;;;4.55;1.58;;;24.20;51.10;;;;;;5100487;28;20113;-96
2023/04/28 09:50:08;;;;;;;4.55;1.60;;;24.40;51.20;;;;;;5088869;28;20093;-96
2023/04/28 09:52:36;;;;;;;4.13;1.90;;;24.50;49.70;;;;;;5103040;28;20076;-90
2023/04/28 09:55:07;;;;;;;2.88;1.70;;;24.60;50.00;;;;;;5092233;28;20039;-94
2023/04/28 09:57:36;;;;;;;5.18;1.63;;;24.80;50.00;;;;;;5072512;28;20059;-91
2023/04/28 10:00:08;;;;;;;5.45;2.35;;;25.00;48.50;;;;;;5093949;28;20044;-92
2023/04/28 10:02:50;;;;;;;2.00;1.30;;;24.90;48.80;;;;;;5096683;28;20052;-91
2023/04/28 10:05:18;;;;;;;2.60;1.92;;;25.00;47.40;;;;;;5109562;28;20071;-88
2023/04/28 10:07:46;;;;;;;4.53;1.52;;;25.10;46.30;;;;;;5104308;28;20540;-95
2023/04/28 10:10:15;;;;;;;3.65;1.40;;;25.10;47.60;;;;;;5106495;28;20199;-94
2023/04/28 10:12:43;;;;;;;5.68;1.23;;;25.30;47.80;;;;;;5085140;28;20047;-93
2023/04/28 10:15:13;;;;;;;7.43;1.58;;;25.40;44.80;;;;;;5104308;28;20507;-90
2023/04/28 10:17:40;;;;;;;4.20;1.75;;;25.50;44.60;;;;;;5088117;28;20123;-88
2023/04/28 10:20:16;;;;;;;3.95;1.40;;;25.80;45.10;;;;;;5102681;28;20048;-91
2023/04/28 10:22:58;;;;;;;5.85;1.45;;;25.80;44.00;;;;;;5107610;28;20054;-89
2023/04/28 10:25:28;;;;;;;5.22;1.20;;;25.80;43.80;;;;;;5094114;28;20060;-95
2023/04/28 10:28:01;;;;;;;2.97;1.10;;;25.70;43.20;;;;;;5096961;28;20047;-94
2023/04/28 10:30:40;;;;;;;3.75;1.17;;;25.40;45.00;;;;;;5092162;28;20104;-88
2023/04/28 10:33:25;;;;;;;1.83;1.00;;;25.50;44.00;;;;;;5104509;28;20048;-86
2023/04/28 10:35:53;;;;;;;3.75;1.00;;;26.00;43.10;;;;;;5096730;28;20507;-88
2023/04/28 10:38:22;;;;;;;11.43;1.77;;;25.90;41.90;;;;;;5098447;28;20047;-90
2023/04/28 10:40:52;;;;;;;3.70;1.17;;;25.80;43.20;;;;;;5087282;28;20078;-89
2023/04/28 10:43:38;;;;;;;2.72;1.27;;;25.80;43.50;;;;;;5114182;28;20047;-87
2023/04/28 10:46:10;;;;;;;3.33;1.00;;;26.00;41.00;;;;;;5112035;27;20055;-89
2023/04/28 10:49:18;;;;;;;5.78;1.17;;;25.80;41.60;;;;;;5106972;28;20051;-95
2023/04/28 10:51:46;;;;;;;1.83;1.10;;;25.90;40.00;;;;;;5094444;28;20312;-94
2023/04/28 10:54:18;;;;;;;2.13;1.05;;;25.80;41.00;;;;;;5107876;28;20051;-92
2023/04/28 10:57:21;;;;;;;1.98;1.13;;;25.90;41.00;;;;;;5108978;28;20453;-89
2023/04/28 11:00:27;;;;;;;2.05;1.00;;;25.80;39.00;;;;;;5108652;28;20044;-90
2023/04/28 11:02:58;;;;;;;3.00;0.93;;;25.60;39.60;;;;;;5105076;28;20862;-86
2023/04/28 11:05:27;;;;;;;7.80;1.17;;;25.30;39.10;;;;;;5108550;28;20057;-86
2023/04/28 11:08:32;;;;;;;4.28;1.15;;;25.00;38.90;;;;;;5100041;28;20052;-85
2023/04/28 11:11:27;;;;;;;3.92;0.90;;;25.30;39.00;;;;;;5092518;28;20423;-85
2023/04/28 11:13:56;;;;;;;2.80;0.73;;;26.00;39.10;;;;;;5084444;27;20113;-86
2023/04/28 11:16:25;;;;;;;4.85;0.77;;;26.30;36.10;;;;;;5108401;28;20040;-87
2023/04/28 11:18:57;;;;;;;0.70;0.50;;;26.60;36.30;;;;;;5111931;28;20130;-85
2023/04/28 11:21:28;;;;;;;6.63;1.27;;;26.90;35.80;;;;;;5110360;28;20051;-87
2023/04/28 11:24:00;;;;;;;6.43;1.45;;;27.40;36.30;;;;;;5111640;28;20484;-86
2023/04/28 11:26:28;;;;;;;3.88;0.88;;;27.70;35.70;;;;;;5104467;28;20040;-89
2023/04/28 11:28:57;;;;;;;5.82;0.75;;;28.30;34.80;;;;;;5121548;28;20042;-92
2023/04/28 11:31:27;;;;;;;1.35;0.50;;;28.40;32.50;;;;;;5115701;28;20047;-91
2023/04/28 11:34:00;;;;;;;0.85;0.70;;;28.50;32.60;;;;;;5094913;28;20139;-94
2023/04/28 11:36:34;;;;;;;3.53;0.60;;;28.70;32.30;;;;;;5112058;28;20100;-92
2023/04/28 11:39:06;;;;;;;2.33;0.88;;;28.80;31.30;;;;;;5094073;28;20040;-91
2023/04/28 11:41:34;;;;;;;1.48;0.70;;;28.90;31.30;;;;;;5117057;27;20286;-88
2023/04/28 11:44:09;;;;;;;1.58;0.73;;;28.70;32.10;;;;;;5101150;28;20102;-87
2023/04/28 11:46:50;;;;;;;0.98;0.75;;;28.50;31.30;;;;;;5092214;28;20052;-88
2023/04/28 11:49:23;;;;;;;2.33;1.08;;;28.50;31.70;;;;;;5104898;28;20511;-88
2023/04/28 11:51:51;;;;;;;2.38;0.80;;;28.60;31.10;;;;;;5092695;28;20048;-85
2023/04/28 11:54:24;;;;;;;2.72;0.70;;;28.80;31.20;;;;;;5113093;27;20047;-91
2023/04/28 11:56:54;;;;;;;1.55;0.90;;;28.80;30.90;;;;;;5111291;28;20052;-89
2023/04/28 11:59:26;;;;;;;4.45;0.70;;;29.10;30.70;;;;;;5106261;28;20032;-82
2023/04/28 12:01:55;;;;;;;8.38;0.80;;;29.30;30.70;;;;;;5106806;28;20051;-88
2023/04/28 12:04:34;;;;;;;3.72;1.00;;;29.50;30.90;;;;;;5100843;28;20055;-85
2023/04/28 12:07:03;;;;;;;2.17;1.02;;;29.70;31.10;;;;;;5102106;28;20060;-84
2023/04/28 12:09:33;;;;;;;3.88;0.73;;;29.80;32.20;;;;;;5108750;28;20043;-85
2023/04/28 12:12:03;;;;;;;3.75;0.77;;;29.80;30.60;;;;;;5077500;28;20138;-88
2023/04/28 12:14:53;;;;;;;2.60;0.60;;;29.80;30.70;;;;;;5105140;28;20039;-91
2023/04/28 12:17:25;;;;;;;4.60;1.00;;;29.80;31.00;;;;;;5092630;28;20055;-89
2023/04/28 12:19:54;;;;;;;2.65;0.80;;;29.80;30.50;;;;;;5092351;28;20135;-85
2023/04/28 12:22:43;;;;;;;1.77;1.13;;;30.00;31.30;;;;;;5099969;28;20426;-92
2023/04/28 12:25:12;;;;;;;1.50;0.60;;;30.20;30.90;;;;;;5103281;28;20047;-86
2023/04/28 12:28:01;;;;;;;3.93;1.00;;;29.90;30.80;;;;;;5091592;28;20083;-84
2023/04/28 12:30:32;;;;;;;1.75;0.60;;;29.90;30.00;;;;;;5105474;28;20055;-85
2023/04/28 12:33:03;;;;;;;1.65;0.70;;;30.10;30.00;;;;;;5103995;28;20503;-83
2023/04/28 12:35:47;;;;;;;1.25;0.75;;;30.00;29.70;;;;;;5107661;28;20123;-86
2023/04/28 12:38:20;;;;;;;3.80;1.02;;;27.60;30.00;;;;;;5085090;28;20259;-86
2023/04/28 12:40:48;;;;;;;4.50;0.90;;;24.90;31.30;;;;;;5114586;28;20058;-86
2023/04/28 12:43:15;;;;;;;5.15;0.80;;;22.70;34.80;;;;;;5093115;28;20146;-84
2023/04/28 12:45:46;;;;;;;2.65;0.57;;;21.00;35.50;;;;;;5110769;28;20047;-82
2023/04/28 12:48:14;;;;;;;3.60;1.02;;;19.60;39.20;;;;;;5100397;28;20054;-83
2023/04/28 12:50:50;;;;;;;3.13;1.20;;;18.70;42.10;;;;;;5100605;28;20027;-82
2023/04/28 12:53:45;;;;;;;4.50;0.80;;;17.90;44.30;;;;;;5053674;28;20090;-86
2023/04/28 12:56:17;;;;;;;7.88;1.00;;;17.30;45.80;;;;;;5106218;28;20055;-86
2023/04/28 12:58:44;;;;;;;2.53;0.90;;;16.80;46.00;;;;;;5109221;28;20075;-83
2023/04/28 13:01:12;;;;;;;7.55;0.98;;;16.40;47.70;;;;;;5090980;28;20134;-82
2023/04/28 13:03:39;;;;;;;1.55;1.00;;;16.10;48.10;;;;;;5102358;28;20431;-82
2023/04/28 13:06:09;;;;;;;4.40;1.23;;;15.80;49.10;;;;;;5102421;28;20052;-83
2023/04/28 13:08:37;;;;;;;4.85;1.30;;;15.30;50.50;;;;;;5112224;28;20495;-83
2023/04/28 13:11:05;;;;;;;4.18;1.10;;;15.00;51.30;;;;;;5112282;28;20051;-82
2023/04/28 13:13:32;;;;;;;2.17;0.73;;;14.90;51.80;;;;;;5111081;28;20118;-81
2023/04/28 13:15:59;;;;;;;9.27;0.82;;;14.90;53.00;;;;;;5094558;28;20062;-83
2023/04/28 13:18:26;;;;;;;1.42;0.98;;;14.80;52.20;;;;;;5109443;28;20047;-81
2023/04/28 13:20:54;;;;;;;6.70;1.20;;;14.80;52.70;;;;;;5104567;28;20047;-82